createdAt,value
2023-01-12T00:01:08.374Z,99805.81
2023-01-12T00:03:35.064Z,99810.53
2023-01-12T00:06:02.158Z,99806.53
2023-01-12T00:08:29.206Z,99810.22
2023-01-12T00:10:56.559Z,99806.53
2023-01-12T00:13:23.323Z,99807.94
2023-01-12T00:16:09.068Z,99805.69
2023-01-12T00:18:35.760Z,99794.53
2023-01-12T00:21:02.424Z,99795.25
2023-01-12T00:23:29.484Z,99787.38
2023-01-12T00:25:56.191Z,99789.53
2023-01-12T00:30:48.181Z,99801.16
2023-01-12T00:33:14.828Z,99786.16
2023-01-12T00:35:41.582Z,99791.50
2023-01-12T00:38:08.615Z,99779.63
2023-01-12T00:40:36.750Z,99774.28
2023-01-12T00:45:51.954Z,99770.25
2023-01-12T00:48:18.655Z,99760.47
2023-01-12T00:50:46.667Z,99775.59
2023-01-12T00:53:13.760Z,99775.59
2023-01-12T00:55:40.584Z,99781.53
2023-01-12T00:58:07.362Z,99776.66
2023-01-12T01:00:34.465Z,99772.00
2023-01-12T01:03:01.184Z,99767.66
2023-01-12T01:05:28.001Z,99758.81
2023-01-12T01:07:54.695Z,99769.94
2023-01-12T01:10:21.382Z,99773.94
2023-01-12T01:12:48.032Z,99784.75
2023-01-12T01:15:14.756Z,99777.59
2023-01-12T01:17:41.632Z,99779.28
2023-01-12T01:20:09.211Z,99780.88
2023-01-12T01:22:35.923Z,99760.22
2023-01-12T01:25:02.776Z,99766.25
2023-01-12T01:27:29.461Z,99765.47
2023-01-12T01:29:56.099Z,99758.94
2023-01-12T01:34:48.353Z,99775.88
2023-01-12T01:37:15.330Z,99770.00
2023-01-12T01:39:42.010Z,99777.13
2023-01-12T01:42:23.928Z,99765.09
2023-01-12T01:44:53.673Z,99772.66
2023-01-12T01:47:23.173Z,99757.84
2023-01-12T01:49:53.416Z,99756.78
2023-01-12T01:52:23.001Z,99757.38
2023-01-12T01:54:58.561Z,99767.06
2023-01-12T01:57:31.763Z,99767.78
2023-01-12T01:59:59.916Z,99759.03
2023-01-12T02:02:27.043Z,99761.97
2023-01-12T02:04:56.054Z,99763.91
2023-01-12T02:07:23.895Z,99760.69
2023-01-12T02:09:50.846Z,99753.22
2023-01-12T02:12:23.929Z,99757.38
2023-01-12T02:15:10.543Z,99756.91
2023-01-12T02:18:01.787Z,99751.34
2023-01-12T02:20:49.710Z,99754.22
2023-01-12T02:26:11.868Z,99756.56
2023-01-12T02:29:06.612Z,99746.91
2023-01-12T02:31:52.012Z,99751.06
2023-01-12T02:34:24.825Z,99734.00
2023-01-12T02:37:08.376Z,99740.75
2023-01-12T02:39:45.128Z,99738.63
2023-01-12T02:42:41.534Z,99731.22
2023-01-12T02:45:21.519Z,99730.94
2023-01-12T02:48:17.530Z,99715.19
2023-01-12T02:50:59.556Z,99709.66
2023-01-12T02:53:48.774Z,99712.25
2023-01-12T02:56:23.096Z,99716.22
2023-01-12T02:58:56.164Z,99697.28
2023-01-12T03:01:23.101Z,99703.47
2023-01-12T03:03:52.320Z,99705.50
2023-01-12T03:06:19.398Z,99696.44
2023-01-12T03:08:49.546Z,99706.97
2023-01-12T03:11:19.403Z,99691.09
2023-01-12T03:13:52.510Z,99693.44
2023-01-12T03:16:23.993Z,99679.88
2023-01-12T03:18:57.107Z,99683.09
2023-01-12T03:21:24.243Z,99674.69
2023-01-12T03:24:00.135Z,99682.94
2023-01-12T03:26:28.576Z,99692.16
2023-01-12T03:29:04.040Z,99683.47
2023-01-12T03:31:31.230Z,99674.63
2023-01-12T03:33:58.521Z,99686.44
2023-01-12T03:36:36.338Z,99667.78
2023-01-12T03:39:14.529Z,99681.53
2023-01-12T03:41:56.644Z,99682.94
2023-01-12T03:45:04.368Z,99689.50
2023-01-12T03:47:33.971Z,99670.56
2023-01-12T03:50:13.561Z,99685.34
2023-01-12T03:52:43.303Z,99686.75
2023-01-12T03:55:13.374Z,99680.91
2023-01-12T03:57:40.674Z,99683.38
2023-01-12T04:00:10.688Z,99691.69
2023-01-12T04:02:37.429Z,99676.16
2023-01-12T04:05:06.592Z,99680.28
2023-01-12T04:07:33.303Z,99682.31
2023-01-12T04:09:59.978Z,99674.56
2023-01-12T04:12:26.768Z,99681.56
2023-01-12T04:14:53.635Z,99671.41
2023-01-12T04:17:23.984Z,99673.28
2023-01-12T04:19:52.127Z,99659.25
2023-01-12T04:22:23.984Z,99653.06
2023-01-12T04:24:50.693Z,99654.16
2023-01-12T04:27:17.890Z,99659.97
2023-01-12T04:29:45.155Z,99654.41
2023-01-12T04:32:12.148Z,99646.56
2023-01-12T04:34:39.702Z,99654.03
2023-01-12T04:37:06.624Z,99662.72
2023-01-12T04:39:33.356Z,99667.19
2023-01-12T04:42:00.041Z,99660.69
2023-01-12T04:44:26.719Z,99650.06
2023-01-12T04:46:53.367Z,99647.00
2023-01-12T04:49:20.051Z,99658.06
2023-01-12T04:51:46.987Z,99648.00
2023-01-12T04:54:13.845Z,99650.03
2023-01-12T04:56:40.831Z,99643.31
2023-01-12T04:59:09.909Z,99655.97
2023-01-12T05:01:41.664Z,99640.91
2023-01-12T05:04:08.842Z,99652.25
2023-01-12T05:06:35.644Z,99641.16
2023-01-12T05:09:20.996Z,99636.69
2023-01-12T05:11:47.810Z,99631.25
2023-01-12T05:14:14.506Z,99625.59
2023-01-12T05:16:41.214Z,99632.19
2023-01-12T05:19:09.441Z,99621.84
2023-01-12T05:21:36.224Z,99621.84
2023-01-12T05:24:02.940Z,99630.94
2023-01-12T05:26:29.753Z,99618.97
2023-01-12T05:28:56.387Z,99611.53
2023-01-12T05:31:24.071Z,99609.50
2023-01-12T05:33:50.815Z,99611.28
2023-01-12T05:36:18.005Z,99609.69
2023-01-12T05:38:44.754Z,99606.56
2023-01-12T05:41:14.612Z,99603.38
2023-01-12T05:43:51.068Z,99603.63
2023-01-12T05:46:23.154Z,99602.78
2023-01-12T05:48:51.401Z,99595.97
2023-01-12T05:51:18.468Z,99603.25
2023-01-12T05:53:45.738Z,99606.19
2023-01-12T05:56:21.539Z,99618.31
2023-01-12T05:58:56.312Z,99609.88
2023-01-12T06:01:24.044Z,99610.31
2023-01-12T06:03:52.843Z,99597.09
2023-01-12T06:06:20.918Z,99597.09
2023-01-12T06:08:50.190Z,99592.13
2023-01-12T06:11:24.031Z,99594.19
2023-01-12T06:13:59.945Z,99589.66
2023-01-12T06:16:28.295Z,99593.00
2023-01-12T06:18:56.041Z,99585.97
2023-01-12T06:21:24.099Z,99589.06
2023-01-12T06:23:51.356Z,99592.78
2023-01-12T06:26:18.028Z,99585.31
2023-01-12T06:28:44.683Z,99571.00
2023-01-12T06:31:13.099Z,99576.94
2023-01-12T06:33:40.170Z,99565.09
2023-01-12T06:36:07.875Z,99574.94
2023-01-12T06:38:38.150Z,99575.03
2023-01-12T06:41:06.976Z,99581.19
2023-01-12T06:43:34.097Z,99572.16
2023-01-12T06:46:00.993Z,99573.38
2023-01-12T06:48:38.847Z,99566.34
2023-01-12T06:51:06.596Z,99562.03
2023-01-12T06:53:33.315Z,99581.03
2023-01-12T06:56:00.053Z,99567.75
2023-01-12T06:58:26.772Z,99556.66
2023-01-12T07:00:53.563Z,99572.72
2023-01-12T07:03:20.665Z,99560.97
2023-01-12T07:05:47.410Z,99562.88
2023-01-12T07:08:16.240Z,99552.97
2023-01-12T07:10:43.398Z,99571.97
2023-01-12T07:13:10.406Z,99560.81
2023-01-12T07:15:38.147Z,99549.88
2023-01-12T07:18:05.141Z,99550.50
2023-01-12T07:20:32.519Z,99555.88
2023-01-12T07:22:59.615Z,99549.69
2023-01-12T07:25:27.152Z,99550.91
2023-01-12T07:27:58.178Z,99554.69
2023-01-12T07:30:26.013Z,99552.00
2023-01-12T07:32:53.267Z,99564.56
2023-01-12T07:35:20.033Z,99564.25
2023-01-12T07:37:56.645Z,99548.38
2023-01-12T07:40:24.405Z,99562.00
2023-01-12T07:42:59.350Z,99577.50
2023-01-12T07:45:26.479Z,99556.13
2023-01-12T07:47:54.425Z,99554.88
2023-01-12T07:50:24.180Z,99568.50
2023-01-12T07:52:51.103Z,99554.25
2023-01-12T07:55:19.779Z,99537.19
2023-01-12T07:57:58.040Z,99526.06
2023-01-12T08:00:26.174Z,99532.03
2023-01-12T08:02:54.570Z,99535.75
2023-01-12T08:07:49.218Z,99522.53
2023-01-12T08:10:16.268Z,99541.53
2023-01-12T08:12:43.018Z,99538.66
2023-01-12T08:15:10.841Z,99546.69
2023-01-12T08:18:00.285Z,99553.72
2023-01-12T08:20:33.781Z,99540.50
2023-01-12T08:23:09.236Z,99533.09
2023-01-12T08:25:44.718Z,99539.91
2023-01-12T08:28:17.478Z,99538.84
2023-01-12T08:30:47.664Z,99528.50
2023-01-12T08:33:15.301Z,99524.97
2023-01-12T08:35:42.230Z,99532.34
2023-01-12T08:38:10.429Z,99523.44
2023-01-12T08:40:55.584Z,99527.91
2023-01-12T08:43:24.136Z,99523.72
2023-01-12T08:45:51.095Z,99533.97
2023-01-12T08:48:19.887Z,99526.53
2023-01-12T08:50:46.531Z,99537.19
2023-01-12T08:53:13.217Z,99526.03
2023-01-12T08:55:39.886Z,99529.09
2023-01-12T08:58:06.548Z,99527.63
2023-01-12T09:00:33.317Z,99532.94
2023-01-12T09:03:01.371Z,99545.25
2023-01-12T09:05:28.162Z,99550.56
2023-01-12T09:07:54.809Z,99550.09
2023-01-12T09:10:21.480Z,99544.50
2023-01-12T09:12:48.177Z,99548.00
2023-01-12T09:15:14.929Z,99545.50
2023-01-12T09:17:41.727Z,99546.75
2023-01-12T09:20:08.934Z,99544.47
2023-01-12T09:22:35.590Z,99543.81
2023-01-12T09:25:02.464Z,99547.50
2023-01-12T09:27:29.129Z,99547.13
2023-01-12T09:29:55.795Z,99551.84
2023-01-12T09:34:49.996Z,99564.34
2023-01-12T09:37:16.727Z,99554.16
2023-01-12T09:39:43.494Z,99560.72
2023-01-12T09:45:24.139Z,99548.34
2023-01-12T09:47:56.394Z,99533.75
2023-01-12T09:50:23.284Z,99541.31
2023-01-12T09:53:02.802Z,99542.97
2023-01-12T09:55:41.865Z,99547.38
2023-01-12T09:58:24.265Z,99541.78
2023-01-12T10:00:53.074Z,99540.75
2023-01-12T10:03:24.335Z,99544.13
2023-01-12T10:05:54.041Z,99534.59
2023-01-12T10:08:24.299Z,99539.00
2023-01-12T10:11:06.005Z,99545.19
2023-01-12T10:13:54.454Z,99540.72
2023-01-12T10:16:23.336Z,99543.22
2023-01-12T10:18:56.665Z,99547.38
2023-01-12T10:21:23.202Z,99532.94
2023-01-12T10:23:53.731Z,99521.03
2023-01-12T10:26:24.169Z,99523.97
2023-01-12T10:28:55.204Z,99527.28
2023-01-12T10:31:23.378Z,99521.16
2023-01-12T10:34:11.199Z,99507.19
2023-01-12T10:36:44.019Z,99497.53
2023-01-12T10:39:23.232Z,99495.78
2023-01-12T10:42:24.337Z,99490.03
2023-01-12T10:45:12.806Z,99482.63
2023-01-12T10:47:39.558Z,99471.94
2023-01-12T10:50:24.378Z,99468.69
2023-01-12T10:52:58.543Z,99479.91
2023-01-12T10:55:30.665Z,99488.19
2023-01-12T10:57:57.988Z,99484.50
2023-01-12T11:00:27.397Z,99477.06
2023-01-12T11:02:54.747Z,99451.88
2023-01-12T11:05:24.237Z,99466.97
2023-01-12T11:07:50.937Z,99459.75
2023-01-12T11:10:24.324Z,99448.81
2023-01-12T11:12:57.641Z,99437.03
2023-01-12T11:15:25.191Z,99464.94
2023-01-12T11:18:24.191Z,99446.56
2023-01-12T11:20:57.199Z,99454.19
2023-01-12T11:23:30.487Z,99438.47
2023-01-12T11:26:01.602Z,99439.53
2023-01-12T11:28:44.211Z,99435.13
2023-01-12T11:31:24.299Z,99431.59
2023-01-12T11:33:58.504Z,99436.38
2023-01-12T11:36:29.385Z,99415.09
2023-01-12T11:39:05.125Z,99427.94
2023-01-12T11:42:06.185Z,99425.47
2023-01-12T11:44:40.867Z,99410.59
2023-01-12T11:47:14.744Z,99417.41
2023-01-12T11:50:05.459Z,99421.75
2023-01-12T11:52:33.174Z,99463.28
2023-01-12T11:55:01.347Z,99420.88
2023-01-12T11:57:30.671Z,99415.91
2023-01-12T12:00:15.939Z,99426.47
2023-01-12T12:02:49.854Z,99403.44
2023-01-12T12:05:24.291Z,99404.31
2023-01-12T12:08:07.286Z,99419.22
2023-01-12T12:11:11.510Z,99396.66
2023-01-12T12:13:50.487Z,99406.41
2023-01-12T12:16:24.282Z,99399.56
2023-01-12T12:19:02.987Z,99393.97
2023-01-12T12:21:50.402Z,99395.16
2023-01-12T12:24:24.240Z,99387.72
2023-01-12T12:26:59.617Z,99379.91
2023-01-12T12:29:50.410Z,99389.59
2023-01-12T12:32:24.247Z,99400.34
2023-01-12T12:35:18.928Z,99400.13
2023-01-12T12:38:14.239Z,99389.78
2023-01-12T12:41:10.908Z,99382.94
2023-01-12T12:43:56.480Z,99378.16
2023-01-12T12:46:24.338Z,99377.13
2023-01-12T12:49:08.102Z,99384.41
2023-01-12T12:51:36.571Z,99372.41
2023-01-12T12:54:07.166Z,99390.03
2023-01-12T12:56:36.911Z,99387.16
2023-01-12T12:59:04.433Z,99368.34
2023-01-12T13:01:31.332Z,99374.94
2023-01-12T13:04:00.716Z,99379.91
2023-01-12T13:06:31.668Z,99375.78
2023-01-12T13:09:01.237Z,99378.25
2023-01-12T13:11:46.633Z,99373.09
2023-01-12T13:14:23.316Z,99384.47
2023-01-12T13:16:52.920Z,99371.63
2023-01-12T13:19:23.337Z,99370.41
2023-01-12T13:22:17.884Z,99370.81
2023-01-12T13:24:44.830Z,99368.34
2023-01-12T13:27:24.345Z,99371.66
2023-01-12T13:29:51.260Z,99363.38
2023-01-12T13:32:24.384Z,99376.63
2023-01-12T13:34:52.154Z,99378.13
2023-01-12T13:37:18.817Z,99375.44
2023-01-12T13:39:55.845Z,99368.81
2023-01-12T13:44:49.137Z,99365.94
2023-01-12T13:47:24.316Z,99358.47
2023-01-12T13:49:59.021Z,99361.75
2023-01-12T13:52:32.122Z,99365.44
2023-01-12T13:55:00.110Z,99362.53
2023-01-12T13:57:29.767Z,99362.13
2023-01-12T14:00:08.902Z,99351.94
2023-01-12T14:02:38.203Z,99371.97
2023-01-12T14:05:24.327Z,99369.50
2023-01-12T14:07:59.039Z,99379.25
2023-01-12T14:10:28.630Z,99370.34
2023-01-12T14:13:24.350Z,99391.03
2023-01-12T14:16:19.298Z,99369.31
2023-01-12T14:18:49.318Z,99376.59
2023-01-12T14:21:24.355Z,99380.53
2023-01-12T14:23:51.436Z,99380.94
2023-01-12T14:26:24.302Z,99388.22
2023-01-12T14:28:52.970Z,99394.81
2023-01-12T14:31:24.325Z,99386.75
2023-01-12T14:33:54.023Z,99380.97
2023-01-12T14:36:24.349Z,99369.81
2023-01-12T14:38:52.582Z,99370.41
2023-01-12T14:41:23.404Z,99388.47
2023-01-12T14:44:10.370Z,99390.69
2023-01-12T14:46:53.405Z,99386.16
2023-01-12T14:49:24.392Z,99384.13
2023-01-12T14:51:53.656Z,99382.88
2023-01-12T14:54:24.356Z,99383.69
2023-01-12T14:56:59.276Z,99382.88
2023-01-12T14:59:31.186Z,99377.50
2023-01-12T15:02:13.285Z,99394.03
2023-01-12T15:04:58.696Z,99374.41
2023-01-12T15:07:30.501Z,99383.28
2023-01-12T15:10:00.480Z,99384.94
2023-01-12T15:12:30.355Z,99378.13
2023-01-12T15:15:24.444Z,99380.41
2023-01-12T15:18:13.985Z,99379.97
2023-01-12T15:21:02.554Z,99381.63
2023-01-12T15:23:51.021Z,99396.09
2023-01-12T15:26:18.930Z,99380.19
2023-01-12T15:28:46.346Z,99390.09
2023-01-12T15:31:24.508Z,99387.00
2023-01-12T15:33:51.775Z,99395.69
2023-01-12T15:36:18.919Z,99389.50
2023-01-12T15:38:45.635Z,99402.31
2023-01-12T15:41:17.640Z,99413.88
2023-01-12T15:43:44.350Z,99400.03
2023-01-12T15:46:19.929Z,99389.28
2023-01-12T15:48:46.571Z,99385.97
2023-01-12T15:51:16.112Z,99390.72
2023-01-12T15:53:42.991Z,99383.94
2023-01-12T15:56:13.428Z,99385.16
2023-01-12T15:58:40.116Z,99370.06
2023-01-12T16:01:10.697Z,99387.44
2023-01-12T16:04:25.262Z,99385.78
2023-01-12T16:06:31.163Z,99377.50
2023-01-12T16:08:58.605Z,99358.91
2023-01-12T16:11:25.269Z,99372.94
2023-01-12T16:13:51.991Z,99368.63
2023-01-12T16:16:21.436Z,99368.81
2023-01-12T16:18:48.759Z,99363.03
2023-01-12T16:21:18.002Z,99358.06
2023-01-12T16:23:45.636Z,99359.31
2023-01-12T16:26:12.522Z,99367.56
2023-01-12T16:28:39.407Z,99364.69
2023-01-12T16:31:07.893Z,99355.38
2023-01-12T16:33:34.565Z,99353.94
2023-01-12T16:36:02.147Z,99362.59
2023-01-12T16:38:29.001Z,99354.91
2023-01-12T16:40:55.893Z,99358.88
2023-01-12T16:43:24.375Z,99356.38
2023-01-12T16:45:51.980Z,99357.22
2023-01-12T16:48:19.546Z,99365.91
2023-01-12T16:50:46.309Z,99370.44
2023-01-12T16:53:13.284Z,99359.66
2023-01-12T16:55:40.183Z,99365.47
2023-01-12T16:58:08.873Z,99350.56
2023-01-12T17:00:36.078Z,99348.91
2023-01-12T17:03:03.478Z,99345.63
2023-01-12T17:05:31.584Z,99340.69
2023-01-12T17:07:58.472Z,99346.06
2023-01-12T17:10:25.488Z,99346.22
2023-01-12T17:12:55.493Z,99365.03
2023-01-12T17:15:24.660Z,99348.91
2023-01-12T17:17:51.639Z,99351.44
2023-01-12T17:20:19.995Z,99347.69
2023-01-12T17:22:48.186Z,99352.03
2023-01-12T17:25:19.003Z,99356.38
2023-01-12T17:27:45.758Z,99355.94
2023-01-12T17:30:12.869Z,99362.97
2023-01-12T17:32:39.955Z,99355.34
2023-01-12T17:35:09.570Z,99357.59
2023-01-12T17:37:37.056Z,99347.47
2023-01-12T17:40:04.604Z,99345.19
2023-01-12T17:42:50.188Z,99343.97
2023-01-12T17:45:17.021Z,99348.31
2023-01-12T17:47:43.721Z,99359.66
2023-01-12T17:50:11.321Z,99347.09
2023-01-12T17:52:37.993Z,99338.38
2023-01-12T17:55:05.102Z,99340.84
2023-01-12T17:57:31.799Z,99332.78
2023-01-12T17:59:58.679Z,99331.94
2023-01-12T18:02:25.526Z,99338.16
2023-01-12T18:04:52.504Z,99339.19
2023-01-12T18:07:19.765Z,99343.53
2023-01-12T18:09:46.454Z,99335.69
2023-01-12T18:12:13.312Z,99326.56
2023-01-12T18:14:40.091Z,99325.13
2023-01-12T18:17:09.350Z,99325.75
2023-01-12T18:19:36.101Z,99324.09
2023-01-12T18:22:07.264Z,99329.06
2023-01-12T18:24:35.920Z,99345.81
2023-01-12T18:27:02.969Z,99323.69
2023-01-12T18:29:29.768Z,99336.72
2023-01-12T18:31:56.486Z,99330.53
2023-01-12T18:36:49.040Z,99321.63
2023-01-12T18:39:24.546Z,99312.94
2023-01-12T18:42:09.721Z,99315.00
2023-01-12T18:44:40.399Z,99337.31
2023-01-12T18:49:54.455Z,99303.84
2023-01-12T18:54:51.842Z,99305.47
2023-01-12T18:59:51.815Z,99312.09
2023-01-12T19:02:19.903Z,99314.38
2023-01-12T19:04:50.256Z,99330.72
2023-01-12T19:07:17.994Z,99310.66
2023-01-12T19:09:44.708Z,99309.63
2023-01-12T19:12:11.392Z,99322.66
2023-01-12T19:14:56.759Z,99317.88
2023-01-12T19:17:24.536Z,99322.66
2023-01-12T19:19:51.287Z,99319.13
2023-01-12T19:22:24.463Z,99310.88
2023-01-12T19:25:09.816Z,99308.78
2023-01-12T19:27:55.277Z,99317.06
2023-01-12T19:30:24.524Z,99313.97
2023-01-12T19:32:52.332Z,99308.78
2023-01-12T19:35:19.407Z,99316.25
2023-01-12T19:37:51.304Z,99308.38
2023-01-12T19:40:24.525Z,99289.34
2023-01-12T19:43:09.978Z,99298.47
2023-01-12T19:45:38.499Z,99286.47
2023-01-12T19:48:06.060Z,99280.88
2023-01-12T19:50:32.774Z,99309.63
2023-01-12T19:53:00.236Z,99290.19
2023-01-12T19:55:27.544Z,99289.00
2023-01-12T19:57:54.812Z,99292.31
2023-01-12T20:00:21.834Z,99276.75
2023-01-12T20:02:48.734Z,99294.53
2023-01-12T20:07:50.479Z,99274.53
2023-01-12T20:10:19.872Z,99277.63
2023-01-12T20:12:46.802Z,99277.63
2023-01-12T20:15:15.357Z,99276.81
2023-01-12T20:17:42.614Z,99280.09
2023-01-12T20:20:12.223Z,99279.09
2023-01-12T20:22:39.166Z,99279.94
2023-01-12T20:25:07.125Z,99272.91
2023-01-12T20:27:35.956Z,99259.88
2023-01-12T20:30:03.986Z,99266.28
2023-01-12T20:32:31.957Z,99247.28
2023-01-12T20:35:02.378Z,99263.84
2023-01-12T20:37:29.100Z,99246.50
2023-01-12T20:39:56.983Z,99237.84
2023-01-12T20:42:24.673Z,99247.34
2023-01-12T20:44:51.764Z,99237.22
2023-01-12T20:49:49.017Z,99222.97
2023-01-12T20:52:15.876Z,99226.69
2023-01-12T20:54:43.178Z,99232.06
2023-01-12T20:57:10.408Z,99222.34
2023-01-12T20:59:38.102Z,99227.91
2023-01-12T21:02:05.487Z,99230.19
2023-01-12T21:04:33.029Z,99230.19
2023-01-12T21:07:00.787Z,99236.41
2023-01-12T21:09:27.515Z,99235.75
2023-01-12T21:11:54.461Z,99218.41
2023-01-12T21:16:49.570Z,99234.06
2023-01-12T21:19:16.361Z,99227.22
2023-01-12T21:21:43.172Z,99227.44
2023-01-12T21:24:10.791Z,99229.06
2023-01-12T21:26:37.751Z,99225.97
2023-01-12T21:29:05.014Z,99240.66
2023-01-12T21:31:31.989Z,99214.81
2023-01-12T21:33:58.749Z,99217.94
2023-01-12T21:36:25.620Z,99218.34
2023-01-12T21:38:53.803Z,99222.47
2023-01-12T21:41:21.935Z,99216.28
2023-01-12T21:43:50.454Z,99217.09
2023-01-12T21:46:18.724Z,99215.84
2023-01-12T21:48:46.581Z,99210.91
2023-01-12T21:51:16.491Z,99209.22
2023-01-12T21:53:43.574Z,99197.66
2023-01-12T21:56:12.468Z,99199.91
2023-01-12T21:58:40.004Z,99207.13
2023-01-12T22:01:12.058Z,99185.63
2023-01-12T22:03:39.639Z,99189.34
2023-01-12T22:06:11.820Z,99191.84
2023-01-12T22:08:41.093Z,99189.56
2023-01-12T22:11:12.584Z,99186.06
2023-01-12T22:13:39.652Z,99180.69
2023-01-12T22:16:09.414Z,99184.84
2023-01-12T22:18:37.431Z,99180.69
2023-01-12T22:21:06.889Z,99195.97
2023-01-12T22:23:38.204Z,99186.06
2023-01-12T22:26:09.297Z,99170.56
2023-01-12T22:28:39.937Z,99182.13
2023-01-12T22:31:24.664Z,99198.03
2023-01-12T22:34:03.162Z,99175.28
2023-01-12T22:36:34.619Z,99173.00
2023-01-12T22:39:01.782Z,99169.06
2023-01-12T22:41:28.801Z,99166.59
2023-01-12T22:43:58.264Z,99168.66
2023-01-12T22:46:26.608Z,99152.38
2023-01-12T22:48:55.581Z,99153.19
2023-01-12T22:51:24.561Z,99171.78
2023-01-12T22:53:52.440Z,99159.59
2023-01-12T22:56:19.393Z,99156.28
2023-01-12T22:58:51.471Z,99151.09
2023-01-12T23:01:20.114Z,99153.09
2023-01-12T23:03:48.472Z,99155.78
2023-01-12T23:06:17.299Z,99154.75
2023-01-12T23:08:45.501Z,99156.06
2023-01-12T23:11:13.443Z,99162.88
2023-01-12T23:13:41.131Z,99150.63
2023-01-12T23:16:09.800Z,99143.84
2023-01-12T23:18:40.467Z,99146.31
2023-01-12T23:21:14.364Z,99145.03
2023-01-12T23:23:46.485Z,99143.44
2023-01-12T23:26:15.781Z,99146.34
2023-01-12T23:28:47.583Z,99160.03
2023-01-12T23:31:19.258Z,99153.84
2023-01-12T23:33:46.381Z,99127.59
2023-01-12T23:36:24.822Z,99133.25
2023-01-12T23:39:01.934Z,99145.19
2023-01-12T23:41:30.272Z,99142.50
2023-01-12T23:43:59.647Z,99141.88
2023-01-12T23:46:28.405Z,99138.16
2023-01-12T23:48:57.078Z,99125.00
2023-01-12T23:51:23.923Z,99125.34
2023-01-12T23:54:01.685Z,99122.50
2023-01-12T23:56:30.606Z,99115.16
2023-01-12T23:58:58.308Z,99119.91
